x

Sheboygan, Wi (sgnw3) Weather Station

6:00pm - Mon 3rd Aug 2015 All times are CDT. -5 hours from GMT.

  • Wind
    14mph, 17mph gusts
  • Air Temp 76°f
  • Sea Pressure 1009.7mb
  • Sheboygan, Wi
  • Sheboygan, Wi

More Historic Weather Station data

Upgrade to MSW Pro to gain access to the past 30 days of data for over 8000 Wavebouys and Weather Stations around the globe.

Join Pro

Comparision Forecast

View Surf forecast
   
Mon 08/03 6:00pm 14 17 mph 1009.7mb 76f
5:00pm 15 20 mph 1009.4mb 77f
4:00pm 22 25 mph 1009.3mb 76f
3:00pm 17 21 mph 1009.4mb 74f
2:00pm 16 20 mph 1009.7mb 73f
1:00pm 23 31 mph 1009.9mb 72f
12:00pm 16 21 mph 1009.8mb 71f
11:00am 11 15 mph 1009.7mb 70f
10:00am 10 13 mph 1009.5mb 69f
9:00am 11
mph
1009.3mb 68f
8:00am 15 16 mph 1009.2mb 67f
7:00am 13 15 mph 1009.1mb 65f
6:00am 13 14 mph 1008.6mb 64f
5:00am 13 15 mph 1007.6mb 65f
4:00am 14 17 mph 1007.2mb 65f
3:00am 11 13 mph 1006.8mb 66f
2:00am 11 14 mph 1006.9mb 67f
1:00am 11 13 mph 1006.4mb 67f
12:00am 10 13 mph 1005.7mb 67f
Sun 08/02 11:00pm 6 7 mph 1005.2mb 68f
10:00pm 13 15 mph 1004.6mb 69f
9:00pm 10 13 mph 1004.4mb 68f
8:00pm  -  2 mph 1003.6mb 62f
7:00pm 6 7 mph 1002.8mb 65f
6:00pm 10 13 mph 1002.4mb -
5:00pm 21 25 mph 999.9mb 88f
4:00pm 30 34 mph 999.1mb 88f
3:00pm 34 45 mph 998.8mb 87f
2:00pm 29 33 mph 1001.4mb 88f
1:00pm 24 28 mph 1002.8mb 84f
12:00pm 17 22 mph 1004.7mb 82f
11:00am 17 24 mph 1006mb 80f
10:00am 16 21 mph 1005.9mb 79f
9:00am 23 30 mph 1006.2mb 78f
8:00am 13 14 mph 1006.4mb 71f
7:00am 9 10 mph 1007.3mb 68f
6:00am 9
mph
1007.7mb 69f
5:00am 8 9 mph 1008.2mb 71f
4:00am 11 13 mph 1008.9mb 71f
3:00am 13 14 mph 1008.9mb 71f
2:00am 7 8 mph 1009.4mb 66f
1:00am 2
mph
1009.9mb 67f
12:00am 5 6 mph 1010.1mb 68f
Sat 08/01 11:00pm 6
mph
1010.4mb 69f
10:00pm 13 14 mph 1010.9mb 70f
9:00pm 8 9 mph 1011mb 73f
8:00pm 2 3 mph 1010.6mb 80f
7:00pm 7 8 mph 1010.8mb 81f
6:00pm 11 14 mph 1011.3mb 81f
5:00pm 11 16 mph 1011.7mb 80f
4:00pm 17 23 mph 1011.9mb 80f
3:00pm 11 15 mph 1012.4mb 80f
2:00pm 20 24 mph 1012.8mb 79f
1:00pm 17 22 mph 1012.9mb 78f
12:00pm 16 22 mph 1013.6mb 77f
11:00am 15 18 mph 1013.8mb 76f
10:00am 10 13 mph 1013.7mb 74f
9:00am 11 14 mph 1013.9mb 71f
8:00am 11 13 mph 1013.7mb 69f
7:00am 13 15 mph 1013.6mb 65f
6:00am 11 14 mph 1013.3mb 65f
5:00am 13 14 mph 1013.4mb 65f
4:00am 15 17 mph 1013.4mb 66f
3:00am 11 14 mph 1013.3mb 67f
2:00am 8 10 mph 1013.7mb 68f
1:00am 8 10 mph 1014mb 70f
12:00am 9 11 mph 1014mb 71f
Fri 07/31 11:00pm 13 14 mph 1014mb 72f
10:00pm 10 11 mph 1013.7mb 73f
9:00pm 11 14 mph 1013mb 75f
8:00pm 11 14 mph 1012.4mb 77f
7:00pm 14 17 mph 1012.2mb 79f
6:00pm 16 22 mph 1012.2mb 79f
5:00pm 16 22 mph 1012.3mb 80f
4:00pm 24 30 mph 1012.3mb 79f
3:00pm 23 30 mph 1012.7mb 79f
2:00pm 22 25 mph 1012.9mb 78f
1:00pm 23 30 mph 1013.1mb 78f
12:00pm 18 24 mph 1013.3mb 77f
11:00am 22 28 mph 1013.2mb 77f
10:00am 13 16 mph 1013.3mb 77f
9:00am 10 13 mph 1013.6mb 74f
8:00am 11 16 mph 1014mb 72f
7:00am 11 14 mph 1014.2mb 69f
6:00am 11 14 mph 1014mb 68f
5:00am 11 14 mph 1014.2mb 68f
4:00am 13 14 mph 1014.1mb 70f
3:00am 11 14 mph 1014.2mb 71f
2:00am 13 15 mph 1014.3mb 72f
1:00am 10 13 mph 1014.6mb 71f